X  Cerrar Datos meteorológicos de aviación METAR     EHAM Amsterdam Airport Schiphol
Temperatura
2°C Temperatura
0°C Punto de rocío
87% Humedad



Viento
5 KM/H
3 MPH
1 M/S
3 NUDO



250°
OSO
Condiciones actuales

Parcialmente nublado Parcialmente nublado
Presión 1021.92 (hPa) - 30.18 (inHg)
Visibilidad 6.2 (milla) - 10 (km)
Aeropuerto
Código de aeropuerto EHAM

localidad: Amsterdam Airport Schiphol
Distancia: 2 (km)

Metar:
EHAM 112325Z 25003KT 9999 FEW028 02/00 Q1022 NOSIG

Hora: 12-04-2021 01:25 CEST